Henryton, Maryland
Current Conditions -  °F | °C
As of 8:57 AM on Monday 24 Nov 2014 (Local Time) from KBWI Reporting Station
Scattered Clouds Scattered Clouds  
Wind Chill: 66°   Ceiling: Unl
Heat Index: 66°   Visibility: 10mi
Dew Point: 59°   Wind: 8mph
Humidity: 78%   Direction: 200°SSW
Pressure: 29.67"   Gusts: 22mph
Location:  39.35°N, 76.9°W
Report Text: KBWI 241357Z 20007G19KT 10SM SCT019 19/15 A2967 RMK AO2
Loading
Personal Weather Stations






























Interactive Weather Map New forecast layout! Learn more

10-Day Weather Forecast

Advertisements
Track Severe Weather on mobile